Saturday, August 27, 2016
10:00 UTC
  |  Log In   |  Register Free
Airport Search:

Washington Dulles International Airport
(KIAD)

FAA data valid effective Jul 21 2016 - Sep 15 2016 (unless otherwise noted).

 
 
 
 
 
 
 
 
 
 
 
 
 
 
Summary: Washington Dulles International (IAD)

Weather Summary


METAR for IAD is not available. Closest METAR is for
METAR

METAR KIAD 270952Z 34003KT 10SM FEW250 23/21 A3014 RMK AO2 SLP203 T02330206

METAR KIAD 270852Z 00000KT 10SM FEW250 23/21 A3013 RMK AO2 SLP197 T02330206 53005

METAR KIAD 270752Z 00000KT 10SM FEW250 24/21 A3011 RMK AO2 SLP194 T02390206

METAR KADW 270858Z 06003KT 10SM FEW065 24/21 A3011 RMK AO2 SLP200 T02410207 53004

METAR KCGS 270948Z 00000KT 10SM CLR 22/21 A3012 RMK AO1

METAR KCJR 270935Z 00000KT 10SM BKN060 23/22 A3014 RMK AO2 T02270216

TAF for IAD is not available.
TAF

KIAD - TAF AMD KIAD 270843Z 2709/2812 VRB03KT P6SM FEW250 =

KDAA - TAF KDAA 270100Z 2701/2807 01006KT 9999 SCT030 QNH3002INS WND 05009KT AFT 2714 TX32/2721Z TN24/2709Z LAST NO AMDS AFT 2701 NEXT 2909 =

KDCA - TAF AMD KDCA 270843Z 2709/2806 01004KT P6SM FEW250

KDCA - FM271500 07007KT P6SM FEW250 =

KNYG - TAF KNYG 2709/2809 35008KT 9999 FEW250 QNH3002INS T24/2710Z T32/2719Z =

KADW - TAF KADW 270900Z 2709/2815 06006KT 9999 SCT060 QNH3009INS

KADW - BECMG 2712/2713 07009KT 9999 FEW030 SCT060 QNH3011INS

KADW - BECMG 2800/2801 09006KT 9999 SKC QNH3012INS

KADW - BECMG 2809/2810 VRB06KT 9999 SCT007 QNH3018INS

KADW - TEMPO 2810/2813 6000 BR BKN007 TX31/2719Z TN24/2709Z =

GlobalAir.com is loading additional information.
 Current Weather at IAD
74.0 F° (23.3 C°)
A Few Clouds
North winds at 0.0 mph
Pressure:
30.13 in
Humidity:
85%
Wind:
Calm
Dew Point:
69.1 F° (20.6 C°)
Visibility:
10.00 mi
IAD NOAA Radar

Communications Summary


CTAFN/A
UNICOM122.95
ATIS134.85 (703-471-7127)
WX ASOS
DULLES GROUND121.9 (EAST)
132.45 (WEST) [24 Hours]
DULLES TOWER120.1 (RY 01R/19L)
120.25 (RY 01C/19C)
128.425 (RY 01L/19R)
128.425 (RYS 01L/19R 12/30)
134.425 (RY 01L/19R & RY 12/30) [24 Hours]
POTOMAC APPROACH120.45 (241-330)
124.65 (091-240)
126.1 (331-090)
POTOMAC DEPARTURE125.05 (300-120)
126.65 (121-299)
CLEARANCE DELIVERY135.7
CLASS B120.45 (241-330)
124.65 (091-240)
125.05 (300-120)
126.1 (331-090)
126.65 (121-299)
CLASS B IC120.45 (241-330)
125.05 (300-120)
EMERGENCY121.5
IC120.1 (RY 01R/19L)
120.25 (RY 01C/19C)
121.9 (EAST)
128.425 (RY 01L/19R)
128.425 (RYS 01L/19R 12/30)
132.45 (WEST)
134.425 (RY 01L/19R & RY 12/30)

Closest Alternate Airports with Instrument Procedures

43VA - Reston Hospital Center - 4.4 nm NE from IAD

KJYO - Leesburg Executive - 10.7 nm NW from IAD

HEF - Manassas Regional/Harry P. Davis Field - 13.7 nm SW from IAD

HEF - Manassas Regional/Harry P. Davis Field - 13.7 nm SW from IAD

HEF - Manassas Regional/Harry P. Davis Field - 13.7 nm SW from IAD

KHEF - Manassas Regional/Harry P. Davis Field - 13.7 nm SW from IAD

KHEF - Manassas Regional/Harry P. Davis Field - 15.8 nm SW from IAD

60MD - Walter Reed National Medical Center At Bet - 17.1 nm NE from IAD

VG93 - Fort Belvoir Community Hospital - 20.4 nm SE from IAD

KGAI - Montgomery County Airpark - 22 nm NE from IAD

Find All Airport Services Find A Hotel Find A Rental Car Find A Golf Course Find A Restaurant $100 Hamburger



FBO's on the Field
FBO Company Facility Photos Services Transportation Aviation Fuel Prices: Prices include tax
Catering Weather Repair Courtesy Rental Type 100LL JetA JetA+ MOGAS 8087
 
Ross Aviation - IAD

Currently rated 5 by 1 person
FS:Shell
Last Updated: Aug-17
Login to update fuel prices
SS:
Contact Ross Aviation - IADMore FBO Information
 
Signature Flight Support

Currently rated 5 by 1 person
FS:Independent
Last Updated: Aug-23
Login to update fuel prices
SS:
Contact Signature Flight SupportMore FBO Information
 
Add another FBO Facility Photos Catering Weather Repair Courtesy Rental Type 100LL JetA JetA+ MOGAS 8087
Services Transportation Aviation Fuel Prices: Prices include tax


model-print
model-print
model-print
model-print